sensor_id;sensor_type;location;lat;lon;timestamp;temperature;humidity
40676;DHT22;26359;48.750;9.314;2023-05-07T00:00:13;15.10;99.90
40676;DHT22;26359;48.750;9.314;2023-05-07T00:02:40;15.10;99.90
40676;DHT22;26359;48.750;9.314;2023-05-07T00:05:06;15.10;99.90
40676;DHT22;26359;48.750;9.314;2023-05-07T00:07:32;15.10;99.90
40676;DHT22;26359;48.750;9.314;2023-05-07T00:09:58;15.10;99.90
40676;DHT22;26359;48.750;9.314;2023-05-07T00:12:23;15.10;99.90
40676;DHT22;26359;48.750;9.314;2023-05-07T00:14:49;15.00;99.90
40676;DHT22;26359;48.750;9.314;2023-05-07T00:17:14;15.10;99.90
40676;DHT22;26359;48.750;9.314;2023-05-07T00:19:40;15.00;99.90
40676;DHT22;26359;48.750;9.314;2023-05-07T00:22:06;15.00;99.90
40676;DHT22;26359;48.750;9.314;2023-05-07T00:24:32;14.90;99.90
40676;DHT22;26359;48.750;9.314;2023-05-07T00:26:57;14.90;99.90
40676;DHT22;26359;48.750;9.314;2023-05-07T00:29:23;14.90;99.90
40676;DHT22;26359;48.750;9.314;2023-05-07T00:31:49;14.80;99.90
40676;DHT22;26359;48.750;9.314;2023-05-07T00:34:15;14.90;99.90
40676;DHT22;26359;48.750;9.314;2023-05-07T00:36:40;14.80;99.90
40676;DHT22;26359;48.750;9.314;2023-05-07T00:39:06;14.80;99.90
40676;DHT22;26359;48.750;9.314;2023-05-07T00:41:32;14.70;99.90
40676;DHT22;26359;48.750;9.314;2023-05-07T00:43:57;14.70;99.90
40676;DHT22;26359;48.750;9.314;2023-05-07T00:46:23;14.70;99.90
40676;DHT22;26359;48.750;9.314;2023-05-07T00:48:50;14.70;99.90
40676;DHT22;26359;48.750;9.314;2023-05-07T00:51:17;14.70;99.90
40676;DHT22;26359;48.750;9.314;2023-05-07T00:53:43;14.70;99.90
40676;DHT22;26359;48.750;9.314;2023-05-07T00:56:08;14.70;99.90
40676;DHT22;26359;48.750;9.314;2023-05-07T00:58:35;14.70;99.90
40676;DHT22;26359;48.750;9.314;2023-05-07T01:01:01;14.60;99.90
40676;DHT22;26359;48.750;9.314;2023-05-07T01:03:26;14.60;99.90
40676;DHT22;26359;48.750;9.314;2023-05-07T01:05:53;14.50;99.90
40676;DHT22;26359;48.750;9.314;2023-05-07T01:08:19;14.40;99.90
40676;DHT22;26359;48.750;9.314;2023-05-07T01:10:46;14.40;99.90
40676;DHT22;26359;48.750;9.314;2023-05-07T01:13:12;14.50;99.90
40676;DHT22;26359;48.750;9.314;2023-05-07T01:15:39;14.50;99.90
40676;DHT22;26359;48.750;9.314;2023-05-07T01:18:06;14.40;99.90
40676;DHT22;26359;48.750;9.314;2023-05-07T01:20:32;14.40;99.90
40676;DHT22;26359;48.750;9.314;2023-05-07T01:22:58;14.40;99.90
40676;DHT22;26359;48.750;9.314;2023-05-07T01:25:25;14.50;99.90
40676;DHT22;26359;48.750;9.314;2023-05-07T01:27:51;14.50;99.90
40676;DHT22;26359;48.750;9.314;2023-05-07T01:30:18;14.40;99.90
40676;DHT22;26359;48.750;9.314;2023-05-07T01:35:21;14.30;99.90
40676;DHT22;26359;48.750;9.314;2023-05-07T01:37:48;14.30;99.90
40676;DHT22;26359;48.750;9.314;2023-05-07T01:40:14;14.30;99.90
40676;DHT22;26359;48.750;9.314;2023-05-07T01:42:41;14.30;99.90
40676;DHT22;26359;48.750;9.314;2023-05-07T01:45:08;14.20;99.90
40676;DHT22;26359;48.750;9.314;2023-05-07T01:47:34;14.20;99.90
40676;DHT22;26359;48.750;9.314;2023-05-07T01:50:01;14.20;99.90
40676;DHT22;26359;48.750;9.314;2023-05-07T01:52:27;14.20;99.90
40676;DHT22;26359;48.750;9.314;2023-05-07T01:54:53;14.10;99.90
40676;DHT22;26359;48.750;9.314;2023-05-07T01:57:19;14.10;99.90
40676;DHT22;26359;48.750;9.314;2023-05-07T01:59:44;14.10;99.90
40676;DHT22;26359;48.750;9.314;2023-05-07T02:02:10;14.10;99.90
40676;DHT22;26359;48.750;9.314;2023-05-07T02:04:35;14.20;99.90
40676;DHT22;26359;48.750;9.314;2023-05-07T02:07:01;14.10;99.90
40676;DHT22;26359;48.750;9.314;2023-05-07T02:09:27;14.20;99.90
40676;DHT22;26359;48.750;9.314;2023-05-07T02:11:53;14.10;99.90
40676;DHT22;26359;48.750;9.314;2023-05-07T02:14:18;14.10;99.90
40676;DHT22;26359;48.750;9.314;2023-05-07T02:16:45;14.00;99.90
40676;DHT22;26359;48.750;9.314;2023-05-07T02:19:10;14.00;99.90
40676;DHT22;26359;48.750;9.314;2023-05-07T02:21:36;14.00;99.90
40676;DHT22;26359;48.750;9.314;2023-05-07T02:24:01;14.00;99.90
40676;DHT22;26359;48.750;9.314;2023-05-07T02:26:27;13.90;99.90
40676;DHT22;26359;48.750;9.314;2023-05-07T02:28:52;13.90;99.90
40676;DHT22;26359;48.750;9.314;2023-05-07T02:31:19;13.90;99.90
40676;DHT22;26359;48.750;9.314;2023-05-07T02:33:44;13.80;99.90
40676;DHT22;26359;48.750;9.314;2023-05-07T02:36:11;13.80;99.90
40676;DHT22;26359;48.750;9.314;2023-05-07T02:38:37;13.80;99.90
40676;DHT22;26359;48.750;9.314;2023-05-07T02:41:03;13.80;99.90
40676;DHT22;26359;48.750;9.314;2023-05-07T02:43:29;13.80;99.90
40676;DHT22;26359;48.750;9.314;2023-05-07T02:46:02;13.70;99.90
40676;DHT22;26359;48.750;9.314;2023-05-07T02:48:28;13.70;99.90
40676;DHT22;26359;48.750;9.314;2023-05-07T02:50:53;13.70;99.90
40676;DHT22;26359;48.750;9.314;2023-05-07T02:53:19;13.70;99.90
40676;DHT22;26359;48.750;9.314;2023-05-07T02:55:44;13.60;99.90
40676;DHT22;26359;48.750;9.314;2023-05-07T02:58:10;13.50;99.90
40676;DHT22;26359;48.750;9.314;2023-05-07T03:00:35;13.60;99.90
40676;DHT22;26359;48.750;9.314;2023-05-07T03:03:01;13.50;99.90
40676;DHT22;26359;48.750;9.314;2023-05-07T03:05:26;13.60;99.90
40676;DHT22;26359;48.750;9.314;2023-05-07T03:07:52;13.50;99.90
40676;DHT22;26359;48.750;9.314;2023-05-07T03:10:18;13.50;99.90
40676;DHT22;26359;48.750;9.314;2023-05-07T03:12:44;13.50;99.90
40676;DHT22;26359;48.750;9.314;2023-05-07T03:15:09;13.50;99.90
40676;DHT22;26359;48.750;9.314;2023-05-07T03:17:36;13.40;99.90
40676;DHT22;26359;48.750;9.314;2023-05-07T03:20:02;13.40;99.90
40676;DHT22;26359;48.750;9.314;2023-05-07T03:22:28;13.40;99.90
40676;DHT22;26359;48.750;9.314;2023-05-07T03:24:53;13.30;99.90
40676;DHT22;26359;48.750;9.314;2023-05-07T03:27:19;13.20;99.90
40676;DHT22;26359;48.750;9.314;2023-05-07T03:29:44;13.30;99.90
40676;DHT22;26359;48.750;9.314;2023-05-07T03:32:10;13.30;99.90
40676;DHT22;26359;48.750;9.314;2023-05-07T03:34:35;13.30;99.90
40676;DHT22;26359;48.750;9.314;2023-05-07T03:37:01;13.30;99.90
40676;DHT22;26359;48.750;9.314;2023-05-07T03:39:26;13.20;99.90
40676;DHT22;26359;48.750;9.314;2023-05-07T03:41:52;13.20;99.90
40676;DHT22;26359;48.750;9.314;2023-05-07T03:44:18;13.20;99.90
40676;DHT22;26359;48.750;9.314;2023-05-07T03:46:43;13.20;99.90
40676;DHT22;26359;48.750;9.314;2023-05-07T03:49:09;13.20;99.90
40676;DHT22;26359;48.750;9.314;2023-05-07T03:51:35;13.10;99.90
40676;DHT22;26359;48.750;9.314;2023-05-07T03:54:01;13.10;99.90
40676;DHT22;26359;48.750;9.314;2023-05-07T03:56:27;13.10;99.90
40676;DHT22;26359;48.750;9.314;2023-05-07T03:58:53;13.10;99.90
40676;DHT22;26359;48.750;9.314;2023-05-07T04:01:18;13.10;99.90
40676;DHT22;26359;48.750;9.314;2023-05-07T04:03:44;13.00;99.90
40676;DHT22;26359;48.750;9.314;2023-05-07T04:06:10;13.00;99.90
40676;DHT22;26359;48.750;9.314;2023-05-07T04:08:35;13.10;99.90
40676;DHT22;26359;48.750;9.314;2023-05-07T04:11:01;13.10;99.90
40676;DHT22;26359;48.750;9.314;2023-05-07T04:13:27;13.10;99.90
40676;DHT22;26359;48.750;9.314;2023-05-07T04:15:55;13.00;99.90
40676;DHT22;26359;48.750;9.314;2023-05-07T04:18:21;13.00;99.90
40676;DHT22;26359;48.750;9.314;2023-05-07T04:20:48;12.90;99.90
40676;DHT22;26359;48.750;9.314;2023-05-07T04:23:14;12.90;99.90
40676;DHT22;26359;48.750;9.314;2023-05-07T04:25:40;12.90;99.90
40676;DHT22;26359;48.750;9.314;2023-05-07T04:28:05;13.00;99.90
40676;DHT22;26359;48.750;9.314;2023-05-07T04:30:31;13.00;99.90
40676;DHT22;26359;48.750;9.314;2023-05-07T04:32:57;13.10;99.90
40676;DHT22;26359;48.750;9.314;2023-05-07T04:35:22;13.10;99.90
40676;DHT22;26359;48.750;9.314;2023-05-07T04:37:48;13.00;99.90
40676;DHT22;26359;48.750;9.314;2023-05-07T04:40:13;13.00;99.90
40676;DHT22;26359;48.750;9.314;2023-05-07T04:42:39;13.00;99.90
40676;DHT22;26359;48.750;9.314;2023-05-07T04:45:05;13.00;99.90
40676;DHT22;26359;48.750;9.314;2023-05-07T04:47:31;13.00;99.90
40676;DHT22;26359;48.750;9.314;2023-05-07T04:49:57;13.00;99.90
40676;DHT22;26359;48.750;9.314;2023-05-07T04:52:23;13.00;99.90
40676;DHT22;26359;48.750;9.314;2023-05-07T04:54:49;13.10;99.90
40676;DHT22;26359;48.750;9.314;2023-05-07T04:57:14;13.10;99.90
40676;DHT22;26359;48.750;9.314;2023-05-07T04:59:40;13.10;99.90
40676;DHT22;26359;48.750;9.314;2023-05-07T05:02:05;13.10;99.90
40676;DHT22;26359;48.750;9.314;2023-05-07T05:04:31;13.20;99.90
40676;DHT22;26359;48.750;9.314;2023-05-07T05:06:57;13.20;99.90
40676;DHT22;26359;48.750;9.314;2023-05-07T05:09:23;13.20;99.90
40676;DHT22;26359;48.750;9.314;2023-05-07T05:11:48;13.20;99.90
40676;DHT22;26359;48.750;9.314;2023-05-07T05:14:14;13.10;99.90
40676;DHT22;26359;48.750;9.314;2023-05-07T05:16:39;13.10;99.90
40676;DHT22;26359;48.750;9.314;2023-05-07T05:19:05;13.10;99.90
40676;DHT22;26359;48.750;9.314;2023-05-07T05:21:31;13.20;99.90
40676;DHT22;26359;48.750;9.314;2023-05-07T05:23:57;13.20;99.90
40676;DHT22;26359;48.750;9.314;2023-05-07T05:26:22;13.20;99.90
40676;DHT22;26359;48.750;9.314;2023-05-07T05:28:48;13.10;99.90
40676;DHT22;26359;48.750;9.314;2023-05-07T05:31:13;13.10;99.90
40676;DHT22;26359;48.750;9.314;2023-05-07T05:33:39;13.10;99.90
40676;DHT22;26359;48.750;9.314;2023-05-07T05:36:05;13.20;99.90
40676;DHT22;26359;48.750;9.314;2023-05-07T05:38:31;13.20;99.90
40676;DHT22;26359;48.750;9.314;2023-05-07T05:40:57;13.30;99.90
40676;DHT22;26359;48.750;9.314;2023-05-07T05:43:22;13.40;99.90
40676;DHT22;26359;48.750;9.314;2023-05-07T05:45:48;13.50;99.90
40676;DHT22;26359;48.750;9.314;2023-05-07T05:48:13;13.50;99.90
40676;DHT22;26359;48.750;9.314;2023-05-07T05:50:39;13.50;99.90
40676;DHT22;26359;48.750;9.314;2023-05-07T05:53:04;13.50;99.90
40676;DHT22;26359;48.750;9.314;2023-05-07T05:55:30;13.60;99.90
40676;DHT22;26359;48.750;9.314;2023-05-07T05:57:58;13.60;99.90
40676;DHT22;26359;48.750;9.314;2023-05-07T06:00:23;13.60;99.90
40676;DHT22;26359;48.750;9.314;2023-05-07T06:02:49;13.60;99.90
40676;DHT22;26359;48.750;9.314;2023-05-07T06:05:14;13.70;99.90
40676;DHT22;26359;48.750;9.314;2023-05-07T06:07:40;13.70;99.90
40676;DHT22;26359;48.750;9.314;2023-05-07T06:10:06;13.80;99.90
40676;DHT22;26359;48.750;9.314;2023-05-07T06:12:31;13.80;99.90
40676;DHT22;26359;48.750;9.314;2023-05-07T06:14:57;13.90;99.90
40676;DHT22;26359;48.750;9.314;2023-05-07T06:17:23;13.90;99.90
40676;DHT22;26359;48.750;9.314;2023-05-07T06:19:48;13.90;99.90
40676;DHT22;26359;48.750;9.314;2023-05-07T06:22:13;14.00;99.90
40676;DHT22;26359;48.750;9.314;2023-05-07T06:24:39;14.10;99.90
40676;DHT22;26359;48.750;9.314;2023-05-07T06:27:04;14.10;99.90
40676;DHT22;26359;48.750;9.314;2023-05-07T06:29:30;14.20;99.90
40676;DHT22;26359;48.750;9.314;2023-05-07T06:32:06;14.30;99.90
40676;DHT22;26359;48.750;9.314;2023-05-07T06:34:32;14.30;99.90
40676;DHT22;26359;48.750;9.314;2023-05-07T06:36:58;14.40;99.90
40676;DHT22;26359;48.750;9.314;2023-05-07T06:39:23;14.40;99.90
40676;DHT22;26359;48.750;9.314;2023-05-07T06:41:49;14.50;99.90
40676;DHT22;26359;48.750;9.314;2023-05-07T06:44:14;14.50;99.90
40676;DHT22;26359;48.750;9.314;2023-05-07T06:46:41;14.50;99.90
40676;DHT22;26359;48.750;9.314;2023-05-07T06:49:07;14.50;99.90
40676;DHT22;26359;48.750;9.314;2023-05-07T06:51:32;14.60;99.90
40676;DHT22;26359;48.750;9.314;2023-05-07T06:53:58;14.60;99.90
40676;DHT22;26359;48.750;9.314;2023-05-07T06:56:23;14.60;99.90
40676;DHT22;26359;48.750;9.314;2023-05-07T06:58:49;14.70;99.90
40676;DHT22;26359;48.750;9.314;2023-05-07T07:01:15;14.70;99.90
40676;DHT22;26359;48.750;9.314;2023-05-07T07:03:40;14.80;99.90
40676;DHT22;26359;48.750;9.314;2023-05-07T07:06:06;15.00;99.90
40676;DHT22;26359;48.750;9.314;2023-05-07T07:08:31;15.10;99.90
40676;DHT22;26359;48.750;9.314;2023-05-07T07:10:57;15.20;99.90
40676;DHT22;26359;48.750;9.314;2023-05-07T07:13:23;15.30;99.90
40676;DHT22;26359;48.750;9.314;2023-05-07T07:15:48;15.40;99.90
40676;DHT22;26359;48.750;9.314;2023-05-07T07:18:14;15.50;99.90
40676;DHT22;26359;48.750;9.314;2023-05-07T07:20:39;15.60;99.90
40676;DHT22;26359;48.750;9.314;2023-05-07T07:23:05;15.70;99.90
40676;DHT22;26359;48.750;9.314;2023-05-07T07:25:31;15.80;99.90
40676;DHT22;26359;48.750;9.314;2023-05-07T07:27:56;15.80;99.90
40676;DHT22;26359;48.750;9.314;2023-05-07T07:30:22;16.00;99.90
40676;DHT22;26359;48.750;9.314;2023-05-07T07:32:47;16.10;99.90
40676;DHT22;26359;48.750;9.314;2023-05-07T07:35:13;16.20;99.90
40676;DHT22;26359;48.750;9.314;2023-05-07T07:37:38;16.30;99.90
40676;DHT22;26359;48.750;9.314;2023-05-07T07:40:04;16.50;99.90
40676;DHT22;26359;48.750;9.314;2023-05-07T07:42:30;16.70;99.90
40676;DHT22;26359;48.750;9.314;2023-05-07T07:44:55;16.90;99.90
40676;DHT22;26359;48.750;9.314;2023-05-07T07:47:22;17.10;99.90
40676;DHT22;26359;48.750;9.314;2023-05-07T07:49:48;17.20;99.90
40676;DHT22;26359;48.750;9.314;2023-05-07T07:52:13;17.30;99.90
40676;DHT22;26359;48.750;9.314;2023-05-07T07:54:39;17.40;99.90
40676;DHT22;26359;48.750;9.314;2023-05-07T07:57:05;17.60;99.90
40676;DHT22;26359;48.750;9.314;2023-05-07T07:59:30;17.70;99.90
40676;DHT22;26359;48.750;9.314;2023-05-07T08:01:56;17.90;99.90
40676;DHT22;26359;48.750;9.314;2023-05-07T08:04:22;18.00;99.90
40676;DHT22;26359;48.750;9.314;2023-05-07T08:06:48;18.10;99.90
40676;DHT22;26359;48.750;9.314;2023-05-07T08:09:19;18.20;99.90
40676;DHT22;26359;48.750;9.314;2023-05-07T08:11:45;18.40;99.90
40676;DHT22;26359;48.750;9.314;2023-05-07T08:14:11;18.60;99.90
40676;DHT22;26359;48.750;9.314;2023-05-07T08:16:37;18.70;99.90
40676;DHT22;26359;48.750;9.314;2023-05-07T08:19:02;18.80;99.90
40676;DHT22;26359;48.750;9.314;2023-05-07T08:21:28;18.90;99.90
40676;DHT22;26359;48.750;9.314;2023-05-07T08:23:54;18.90;99.90
40676;DHT22;26359;48.750;9.314;2023-05-07T08:26:19;19.20;99.90
40676;DHT22;26359;48.750;9.314;2023-05-07T08:28:45;19.20;99.90
40676;DHT22;26359;48.750;9.314;2023-05-07T08:31:11;19.40;99.90
40676;DHT22;26359;48.750;9.314;2023-05-07T08:33:36;19.40;99.90
40676;DHT22;26359;48.750;9.314;2023-05-07T08:36:04;19.40;99.90
40676;DHT22;26359;48.750;9.314;2023-05-07T08:38:29;19.40;99.90
40676;DHT22;26359;48.750;9.314;2023-05-07T08:40:55;19.50;99.90
40676;DHT22;26359;48.750;9.314;2023-05-07T08:43:21;19.70;99.90
40676;DHT22;26359;48.750;9.314;2023-05-07T08:45:49;19.70;99.90
40676;DHT22;26359;48.750;9.314;2023-05-07T08:48:17;19.80;99.90
40676;DHT22;26359;48.750;9.314;2023-05-07T08:50:44;19.80;99.90
40676;DHT22;26359;48.750;9.314;2023-05-07T08:53:10;19.90;99.90
40676;DHT22;26359;48.750;9.314;2023-05-07T08:55:35;20.00;99.90
40676;DHT22;26359;48.750;9.314;2023-05-07T08:58:01;20.00;99.90
40676;DHT22;26359;48.750;9.314;2023-05-07T09:00:27;20.10;99.90
40676;DHT22;26359;48.750;9.314;2023-05-07T09:02:53;20.10;99.90
40676;DHT22;26359;48.750;9.314;2023-05-07T09:05:19;20.20;99.90
40676;DHT22;26359;48.750;9.314;2023-05-07T09:07:45;20.40;99.90
40676;DHT22;26359;48.750;9.314;2023-05-07T09:10:12;20.40;99.90
40676;DHT22;26359;48.750;9.314;2023-05-07T09:12:39;20.50;99.90
40676;DHT22;26359;48.750;9.314;2023-05-07T09:15:05;20.50;99.90
40676;DHT22;26359;48.750;9.314;2023-05-07T09:17:31;20.70;99.90
40676;DHT22;26359;48.750;9.314;2023-05-07T09:19:56;20.80;99.90
40676;DHT22;26359;48.750;9.314;2023-05-07T09:22:26;20.90;99.90
40676;DHT22;26359;48.750;9.314;2023-05-07T09:24:52;21.00;99.90
40676;DHT22;26359;48.750;9.314;2023-05-07T09:27:17;21.10;99.90
40676;DHT22;26359;48.750;9.314;2023-05-07T09:29:44;21.20;99.90
40676;DHT22;26359;48.750;9.314;2023-05-07T09:32:10;21.30;99.90
40676;DHT22;26359;48.750;9.314;2023-05-07T09:34:36;21.30;99.90
40676;DHT22;26359;48.750;9.314;2023-05-07T09:37:05;21.40;99.90
40676;DHT22;26359;48.750;9.314;2023-05-07T09:39:41;21.40;99.90
40676;DHT22;26359;48.750;9.314;2023-05-07T09:42:07;21.50;99.90
40676;DHT22;26359;48.750;9.314;2023-05-07T09:44:34;21.60;99.90
40676;DHT22;26359;48.750;9.314;2023-05-07T09:47:00;21.70;99.90
40676;DHT22;26359;48.750;9.314;2023-05-07T09:49:29;21.80;99.90
40676;DHT22;26359;48.750;9.314;2023-05-07T09:51:56;22.00;99.90
40676;DHT22;26359;48.750;9.314;2023-05-07T09:54:24;22.10;99.90
40676;DHT22;26359;48.750;9.314;2023-05-07T09:56:52;22.20;99.90
40676;DHT22;26359;48.750;9.314;2023-05-07T09:59:18;22.30;99.90
40676;DHT22;26359;48.750;9.314;2023-05-07T10:01:45;22.50;99.90
40676;DHT22;26359;48.750;9.314;2023-05-07T10:04:12;22.60;99.90
40676;DHT22;26359;48.750;9.314;2023-05-07T10:06:40;22.60;99.90
40676;DHT22;26359;48.750;9.314;2023-05-07T10:09:06;22.80;99.90
40676;DHT22;26359;48.750;9.314;2023-05-07T10:11:35;22.90;99.90
40676;DHT22;26359;48.750;9.314;2023-05-07T10:14:02;22.90;99.90
40676;DHT22;26359;48.750;9.314;2023-05-07T10:16:31;23.00;99.90
40676;DHT22;26359;48.750;9.314;2023-05-07T10:18:58;23.10;99.90
40676;DHT22;26359;48.750;9.314;2023-05-07T10:21:27;23.20;99.90
40676;DHT22;26359;48.750;9.314;2023-05-07T10:24:16;23.20;99.90
40676;DHT22;26359;48.750;9.314;2023-05-07T10:26:47;23.40;99.90
40676;DHT22;26359;48.750;9.314;2023-05-07T10:34:47;23.70;99.90
40676;DHT22;26359;48.750;9.314;2023-05-07T10:37:14;23.80;99.90
40676;DHT22;26359;48.750;9.314;2023-05-07T10:39:40;23.90;99.90
40676;DHT22;26359;48.750;9.314;2023-05-07T10:42:13;24.20;99.90
40676;DHT22;26359;48.750;9.314;2023-05-07T10:44:39;24.30;99.90
40676;DHT22;26359;48.750;9.314;2023-05-07T10:47:09;24.60;99.90
40676;DHT22;26359;48.750;9.314;2023-05-07T10:52:18;25.20;99.90
40676;DHT22;26359;48.750;9.314;2023-05-07T10:54:45;25.30;99.90
40676;DHT22;26359;48.750;9.314;2023-05-07T10:57:33;25.20;99.90
40676;DHT22;26359;48.750;9.314;2023-05-07T11:00:01;25.10;99.90
40676;DHT22;26359;48.750;9.314;2023-05-07T11:05:25;24.70;99.90
40676;DHT22;26359;48.750;9.314;2023-05-07T11:08:00;24.80;99.90
40676;DHT22;26359;48.750;9.314;2023-05-07T11:10:52;25.10;99.90
40676;DHT22;26359;48.750;9.314;2023-05-07T11:13:41;25.40;99.90
40676;DHT22;26359;48.750;9.314;2023-05-07T11:16:19;25.70;99.90
40676;DHT22;26359;48.750;9.314;2023-05-07T11:18:52;26.00;99.90
40676;DHT22;26359;48.750;9.314;2023-05-07T11:21:38;26.20;99.90
40676;DHT22;26359;48.750;9.314;2023-05-07T11:24:04;26.40;99.90
40676;DHT22;26359;48.750;9.314;2023-05-07T11:26:41;26.90;99.90
40676;DHT22;26359;48.750;9.314;2023-05-07T11:29:17;27.10;99.90
40676;DHT22;26359;48.750;9.314;2023-05-07T11:31:43;27.10;99.90
40676;DHT22;26359;48.750;9.314;2023-05-07T11:34:09;27.10;99.90
40676;DHT22;26359;48.750;9.314;2023-05-07T11:36:36;26.90;99.90
40676;DHT22;26359;48.750;9.314;2023-05-07T11:39:06;26.70;99.90
40676;DHT22;26359;48.750;9.314;2023-05-07T11:41:47;26.40;99.90
40676;DHT22;26359;48.750;9.314;2023-05-07T11:44:13;25.90;99.90
40676;DHT22;26359;48.750;9.314;2023-05-07T11:46:43;25.70;99.90
40676;DHT22;26359;48.750;9.314;2023-05-07T11:49:09;25.50;99.90
40676;DHT22;26359;48.750;9.314;2023-05-07T11:51:35;25.30;99.90
40676;DHT22;26359;48.750;9.314;2023-05-07T11:54:03;25.10;99.90
40676;DHT22;26359;48.750;9.314;2023-05-07T11:56:29;25.00;99.90
40676;DHT22;26359;48.750;9.314;2023-05-07T11:58:54;24.80;99.90
40676;DHT22;26359;48.750;9.314;2023-05-07T12:01:20;24.60;99.90
40676;DHT22;26359;48.750;9.314;2023-05-07T12:03:46;24.40;99.90
40676;DHT22;26359;48.750;9.314;2023-05-07T12:06:12;24.30;99.90
40676;DHT22;26359;48.750;9.314;2023-05-07T12:08:39;24.00;99.90
40676;DHT22;26359;48.750;9.314;2023-05-07T12:11:08;23.80;99.90
40676;DHT22;26359;48.750;9.314;2023-05-07T12:13:35;23.70;99.90
40676;DHT22;26359;48.750;9.314;2023-05-07T12:16:01;23.50;99.90
40676;DHT22;26359;48.750;9.314;2023-05-07T12:18:28;23.40;99.90
40676;DHT22;26359;48.750;9.314;2023-05-07T12:20:55;23.30;99.90
40676;DHT22;26359;48.750;9.314;2023-05-07T12:23:21;23.20;99.90
40676;DHT22;26359;48.750;9.314;2023-05-07T12:25:47;23.10;99.90
40676;DHT22;26359;48.750;9.314;2023-05-07T12:28:14;23.00;99.90
40676;DHT22;26359;48.750;9.314;2023-05-07T12:30:44;22.90;99.90
40676;DHT22;26359;48.750;9.314;2023-05-07T12:33:10;22.80;99.90
40676;DHT22;26359;48.750;9.314;2023-05-07T12:35:38;22.60;99.90
40676;DHT22;26359;48.750;9.314;2023-05-07T12:38:17;22.40;99.90
40676;DHT22;26359;48.750;9.314;2023-05-07T12:40:45;22.20;99.90
40676;DHT22;26359;48.750;9.314;2023-05-07T12:45:43;21.80;99.90
40676;DHT22;26359;48.750;9.314;2023-05-07T12:48:12;21.50;99.90
40676;DHT22;26359;48.750;9.314;2023-05-07T12:50:37;21.20;99.90
40676;DHT22;26359;48.750;9.314;2023-05-07T12:53:04;20.90;99.90
40676;DHT22;26359;48.750;9.314;2023-05-07T12:55:31;20.60;99.90
40676;DHT22;26359;48.750;9.314;2023-05-07T12:58:00;20.50;99.90
40676;DHT22;26359;48.750;9.314;2023-05-07T13:00:37;20.60;99.90
40676;DHT22;26359;48.750;9.314;2023-05-07T13:03:03;20.50;99.90
40676;DHT22;26359;48.750;9.314;2023-05-07T13:05:28;20.50;99.90
40676;DHT22;26359;48.750;9.314;2023-05-07T13:07:58;20.50;99.90
40676;DHT22;26359;48.750;9.314;2023-05-07T13:10:24;20.40;99.90
40676;DHT22;26359;48.750;9.314;2023-05-07T13:12:50;19.60;99.90
40676;DHT22;26359;48.750;9.314;2023-05-07T13:15:16;18.80;99.90
40676;DHT22;26359;48.750;9.314;2023-05-07T13:17:42;18.00;99.90
40676;DHT22;26359;48.750;9.314;2023-05-07T13:20:10;17.10;99.90
40676;DHT22;26359;48.750;9.314;2023-05-07T13:22:36;16.70;99.90
40676;DHT22;26359;48.750;9.314;2023-05-07T13:25:02;16.40;99.90
40676;DHT22;26359;48.750;9.314;2023-05-07T13:27:28;16.20;99.90
40676;DHT22;26359;48.750;9.314;2023-05-07T13:29:56;16.10;99.90
40676;DHT22;26359;48.750;9.314;2023-05-07T13:32:21;15.90;99.90
40676;DHT22;26359;48.750;9.314;2023-05-07T13:34:47;15.80;99.90
40676;DHT22;26359;48.750;9.314;2023-05-07T13:37:12;15.80;99.90
40676;DHT22;26359;48.750;9.314;2023-05-07T13:39:38;15.70;99.90
40676;DHT22;26359;48.750;9.314;2023-05-07T13:42:03;15.80;99.90
40676;DHT22;26359;48.750;9.314;2023-05-07T13:44:29;15.70;99.90
40676;DHT22;26359;48.750;9.314;2023-05-07T13:46:54;15.60;99.90
40676;DHT22;26359;48.750;9.314;2023-05-07T13:49:20;15.50;99.90
40676;DHT22;26359;48.750;9.314;2023-05-07T13:51:45;15.50;99.90
40676;DHT22;26359;48.750;9.314;2023-05-07T13:54:11;15.40;99.90
40676;DHT22;26359;48.750;9.314;2023-05-07T13:56:37;15.40;99.90
40676;DHT22;26359;48.750;9.314;2023-05-07T13:59:02;15.40;99.90
40676;DHT22;26359;48.750;9.314;2023-05-07T14:01:28;15.40;99.90
40676;DHT22;26359;48.750;9.314;2023-05-07T14:03:53;15.40;99.90
40676;DHT22;26359;48.750;9.314;2023-05-07T14:06:19;15.40;99.90
40676;DHT22;26359;48.750;9.314;2023-05-07T14:08:45;15.40;99.90
40676;DHT22;26359;48.750;9.314;2023-05-07T14:11:10;15.40;99.90
40676;DHT22;26359;48.750;9.314;2023-05-07T14:13:36;15.30;99.90
40676;DHT22;26359;48.750;9.314;2023-05-07T14:16:01;15.20;99.90
40676;DHT22;26359;48.750;9.314;2023-05-07T14:18:27;15.20;99.90
40676;DHT22;26359;48.750;9.314;2023-05-07T14:20:54;15.20;99.90
40676;DHT22;26359;48.750;9.314;2023-05-07T14:23:19;15.10;99.90
40676;DHT22;26359;48.750;9.314;2023-05-07T14:25:47;15.10;99.90
40676;DHT22;26359;48.750;9.314;2023-05-07T14:28:13;15.10;99.90
40676;DHT22;26359;48.750;9.314;2023-05-07T14:30:38;15.10;99.90
40676;DHT22;26359;48.750;9.314;2023-05-07T14:33:04;15.10;99.90
40676;DHT22;26359;48.750;9.314;2023-05-07T14:35:30;15.10;99.90
40676;DHT22;26359;48.750;9.314;2023-05-07T14:37:55;15.20;99.90
40676;DHT22;26359;48.750;9.314;2023-05-07T14:40:21;15.10;99.90
40676;DHT22;26359;48.750;9.314;2023-05-07T14:42:46;15.20;99.90
40676;DHT22;26359;48.750;9.314;2023-05-07T14:45:12;15.30;99.90
40676;DHT22;26359;48.750;9.314;2023-05-07T14:47:38;15.40;99.90
40676;DHT22;26359;48.750;9.314;2023-05-07T14:50:03;15.40;99.90
40676;DHT22;26359;48.750;9.314;2023-05-07T14:52:29;15.40;99.90
40676;DHT22;26359;48.750;9.314;2023-05-07T14:54:55;15.50;99.90
40676;DHT22;26359;48.750;9.314;2023-05-07T14:57:20;15.50;99.90
40676;DHT22;26359;48.750;9.314;2023-05-07T14:59:46;15.60;99.90
40676;DHT22;26359;48.750;9.314;2023-05-07T15:02:12;15.70;99.90
40676;DHT22;26359;48.750;9.314;2023-05-07T15:04:38;15.70;99.90
40676;DHT22;26359;48.750;9.314;2023-05-07T15:07:14;15.80;99.90
40676;DHT22;26359;48.750;9.314;2023-05-07T15:09:44;15.70;99.90
40676;DHT22;26359;48.750;9.314;2023-05-07T15:12:10;15.70;99.90
40676;DHT22;26359;48.750;9.314;2023-05-07T15:14:37;15.70;99.90
40676;DHT22;26359;48.750;9.314;2023-05-07T15:17:03;15.80;99.90
40676;DHT22;26359;48.750;9.314;2023-05-07T15:19:29;15.80;99.90
40676;DHT22;26359;48.750;9.314;2023-05-07T15:21:58;15.80;99.90
40676;DHT22;26359;48.750;9.314;2023-05-07T15:24:28;15.80;99.90
40676;DHT22;26359;48.750;9.314;2023-05-07T15:26:53;15.80;99.90
40676;DHT22;26359;48.750;9.314;2023-05-07T15:29:19;15.90;99.90
40676;DHT22;26359;48.750;9.314;2023-05-07T15:31:44;15.90;99.90
40676;DHT22;26359;48.750;9.314;2023-05-07T15:34:10;15.90;99.90
40676;DHT22;26359;48.750;9.314;2023-05-07T15:36:35;15.90;99.90
40676;DHT22;26359;48.750;9.314;2023-05-07T15:39:01;15.90;99.90
40676;DHT22;26359;48.750;9.314;2023-05-07T15:41:28;16.00;99.90